createdAt,value
2023-05-11T16:04:08.368Z,36.45
2023-05-11T16:06:35.269Z,37.28
2023-05-11T16:09:02.072Z,38.02
2023-05-11T16:11:28.683Z,38.09
2023-05-11T16:13:55.285Z,37.98
2023-05-11T16:16:22.309Z,38.13
2023-05-11T16:18:49.543Z,38.51
2023-05-11T16:21:16.222Z,38.80
2023-05-11T16:23:42.882Z,38.43
2023-05-11T16:26:11.526Z,38.13
2023-05-11T16:28:38.881Z,38.26
2023-05-11T16:31:05.555Z,38.34
2023-05-11T16:33:32.286Z,38.59
2023-05-11T16:35:58.957Z,39.13
2023-05-11T16:38:25.569Z,39.31
2023-05-11T16:40:52.220Z,38.82
2023-05-11T16:43:18.815Z,39.95
2023-05-11T16:45:45.834Z,39.92
2023-05-11T16:48:13.550Z,40.28
2023-05-11T16:50:55.318Z,40.91
2023-05-11T16:53:27.587Z,41.45
2023-05-11T16:55:55.374Z,41.30
2023-05-11T16:58:23.174Z,41.19
2023-05-11T17:00:50.618Z,41.58
2023-05-11T17:03:18.629Z,42.34
2023-05-11T17:05:45.468Z,42.37
2023-05-11T17:08:12.387Z,42.66
2023-05-11T17:10:38.984Z,42.41
2023-05-11T17:13:05.700Z,42.46
2023-05-11T17:15:32.433Z,42.54
2023-05-11T17:17:59.071Z,42.65
2023-05-11T17:20:25.891Z,43.18
2023-05-11T17:22:54.416Z,43.56
2023-05-11T17:25:20.972Z,44.12
2023-05-11T17:27:47.560Z,44.50
2023-05-11T17:30:14.462Z,44.88
2023-05-11T17:32:41.390Z,44.57
2023-05-11T17:35:09.277Z,45.72
2023-05-11T17:37:36.198Z,46.08
2023-05-11T17:40:03.499Z,46.41
2023-05-11T17:42:30.968Z,46.90
2023-05-11T17:44:58.659Z,47.42
2023-05-11T17:47:26.192Z,48.09
2023-05-11T17:49:52.927Z,48.68
2023-05-11T17:52:19.594Z,49.11
2023-05-11T17:54:46.357Z,49.67
2023-05-11T17:57:12.987Z,50.32
2023-05-11T17:59:39.662Z,50.72
2023-05-11T18:02:08.083Z,51.76
2023-05-11T18:04:35.130Z,52.12
2023-05-11T18:07:02.712Z,52.71
2023-05-11T18:09:29.572Z,53.24
2023-05-11T18:11:56.171Z,53.21
2023-05-11T18:14:22.931Z,53.49
2023-05-11T18:16:50.551Z,53.46
2023-05-11T18:19:18.152Z,53.81
2023-05-11T18:21:44.960Z,54.70
2023-05-11T18:24:14.630Z,54.58
2023-05-11T18:26:41.632Z,55.03
2023-05-11T18:29:08.356Z,55.35
2023-05-11T18:31:35.114Z,55.52
2023-05-11T18:34:01.754Z,55.56
2023-05-11T18:36:29.558Z,56.10
2023-05-11T18:38:56.188Z,56.34
2023-05-11T18:41:22.826Z,56.37
2023-05-11T18:43:50.268Z,56.62
2023-05-11T18:46:16.904Z,56.98
2023-05-11T18:48:43.540Z,56.97
2023-05-11T18:51:11.084Z,57.36
2023-05-11T18:53:46.826Z,57.69
2023-05-11T18:56:14.589Z,57.99
2023-05-11T18:58:41.235Z,57.68
2023-05-11T19:01:08.028Z,57.89
2023-05-11T19:03:36.296Z,58.02
2023-05-11T19:06:02.908Z,58.29
2023-05-11T19:08:30.111Z,58.42
2023-05-11T19:10:56.793Z,59.08
2023-05-11T19:13:23.387Z,59.00
2023-05-11T19:15:50.277Z,59.45
2023-05-11T19:18:17.876Z,59.95
2023-05-11T19:20:44.480Z,59.89
2023-05-11T19:23:11.101Z,60.31
2023-05-11T19:25:37.778Z,60.37
2023-05-11T19:28:04.525Z,61.13
2023-05-11T19:30:31.227Z,61.09
2023-05-11T19:32:57.863Z,61.55
2023-05-11T19:35:24.736Z,61.60
2023-05-11T19:37:51.380Z,62.50
2023-05-11T19:40:44.527Z,62.61
2023-05-11T19:43:06.678Z,62.82
2023-05-11T19:45:34.132Z,63.28
2023-05-11T19:48:00.915Z,63.28
2023-05-11T19:50:28.035Z,63.44
2023-05-11T19:52:55.573Z,63.44
2023-05-11T19:55:22.251Z,63.72
2023-05-11T19:57:48.867Z,64.06
2023-05-11T20:00:19.639Z,64.00
2023-05-11T20:02:47.529Z,64.45
2023-05-11T20:05:14.609Z,64.44
2023-05-11T20:07:41.928Z,64.36
2023-05-11T20:10:09.397Z,64.58
2023-05-11T20:12:38.035Z,64.66
2023-05-11T20:15:06.700Z,65.15
2023-05-11T20:17:34.836Z,65.38
2023-05-11T20:20:02.385Z,65.66
2023-05-11T20:22:29.019Z,65.82
2023-05-11T20:24:55.651Z,65.87
2023-05-11T20:27:22.294Z,66.20
2023-05-11T20:29:49.049Z,66.60
2023-05-11T20:32:15.712Z,66.49
2023-05-11T20:34:42.282Z,67.01
2023-05-11T20:37:09.987Z,66.81
2023-05-11T20:39:36.657Z,67.14
2023-05-11T20:42:04.968Z,67.21
2023-05-11T20:44:31.645Z,67.47
2023-05-11T20:46:58.212Z,67.21
2023-05-11T20:49:37.513Z,67.84
2023-05-11T20:52:07.906Z,67.68
2023-05-11T20:54:35.732Z,68.03
2023-05-11T20:57:04.295Z,68.14
2023-05-11T21:02:01.652Z,68.47
2023-05-11T21:04:29.865Z,68.23
2023-05-11T21:06:57.232Z,68.17
2023-05-11T21:09:25.181Z,68.46
2023-05-11T21:11:51.773Z,67.83
2023-05-11T21:14:19.798Z,67.89
2023-05-11T21:16:46.386Z,67.90
2023-05-11T21:19:13.023Z,68.42
2023-05-11T21:21:39.604Z,68.21
2023-05-11T21:24:06.382Z,68.21
2023-05-11T21:26:33.017Z,68.25
2023-05-11T21:29:00.744Z,68.33
2023-05-11T21:31:27.434Z,68.60
2023-05-11T21:33:54.287Z,69.03
2023-05-11T21:36:22.265Z,68.86
2023-05-11T21:38:48.981Z,69.02
2023-05-11T21:41:16.860Z,68.78
2023-05-11T21:43:43.502Z,69.19
2023-05-11T21:46:10.185Z,69.51
2023-05-11T21:48:36.788Z,69.90
2023-05-11T21:51:03.974Z,69.89
2023-05-11T21:53:30.573Z,69.94
2023-05-11T21:55:57.140Z,70.31
2023-05-11T21:58:24.117Z,69.84
2023-05-11T22:00:50.991Z,70.37
2023-05-11T22:03:19.450Z,70.58
2023-05-11T22:05:47.169Z,71.15
2023-05-11T22:08:15.700Z,70.89
2023-05-11T22:10:43.415Z,71.53
2023-05-11T22:13:12.161Z,71.06
2023-05-11T22:15:41.259Z,71.48
2023-05-11T22:18:07.908Z,71.33
2023-05-11T22:20:35.952Z,71.72
2023-05-11T22:23:02.687Z,71.51
2023-05-11T22:25:29.359Z,72.00
2023-05-11T22:27:55.975Z,72.46
2023-05-11T22:30:23.063Z,72.53
2023-05-11T22:32:49.828Z,72.84
2023-05-11T22:35:18.255Z,72.76
2023-05-11T22:37:44.878Z,73.23
2023-05-11T22:40:12.079Z,72.74
2023-05-11T22:42:38.689Z,73.49
2023-05-11T22:45:06.241Z,74.00
2023-05-11T22:47:32.860Z,73.86
2023-05-11T22:50:00.536Z,73.94
2023-05-11T22:52:27.309Z,74.01
2023-05-11T22:54:55.213Z,74.05
2023-05-11T22:57:24.228Z,74.34
2023-05-11T22:59:50.895Z,74.86
2023-05-11T23:02:18.367Z,74.40
2023-05-11T23:04:50.273Z,74.39
2023-05-11T23:07:16.932Z,74.66
2023-05-11T23:09:43.638Z,74.91
2023-05-11T23:12:10.319Z,74.63
2023-05-11T23:14:37.293Z,74.83
2023-05-11T23:17:03.838Z,75.25
2023-05-11T23:19:31.301Z,75.67
2023-05-11T23:21:57.950Z,75.85
2023-05-11T23:24:24.561Z,75.68
2023-05-11T23:26:51.154Z,75.60
2023-05-11T23:29:17.830Z,75.54
2023-05-11T23:31:44.487Z,76.09
2023-05-11T23:34:11.155Z,75.76
2023-05-11T23:36:38.286Z,76.07
2023-05-11T23:39:05.470Z,76.50
2023-05-11T23:41:32.543Z,75.84
2023-05-11T23:43:59.880Z,76.53
2023-05-11T23:46:26.778Z,76.20
2023-05-11T23:48:53.370Z,76.79
2023-05-11T23:51:19.979Z,76.98
2023-05-11T23:53:46.692Z,77.10
2023-05-11T23:56:14.923Z,76.50
2023-05-11T23:58:41.551Z,76.68
